F/V Le Natif 2 — FKVW — position and weather

sailwx.info

Track history (hours):
 
Tides and Currents Weather Stations Pressure Air Temp Water Temp Dewpoint Dewpoint Depression Visibility Wind Speed Wind Dir Waves Ship Positions

F/V Le Natif 2

Last reported at 2014-Dec-17 13:33 UTC. Time now 2014-Dec-21 12:50 UTC.
Position N 46°39' W 001°56'.

Length 16 m.

Type: Fishing. MMSI: 228131600.

Date/timePositionNaut miles runAvg speedWind from/ knotsBaromVisibWave heightAir tempDewpointWater temp
2014-Dec-17 13:33N 46°39' W 001°56'8 8.3
2014-Dec-17 12:33N 46°31' W 001°52'3 3.3
2014-Dec-17 11:33N 46°30' W 001°48'0 0.0
2014-Dec-17 10:33N 46°30' W 001°48'  
2014-Dec-12 07:34N 46°30' W 001°47'0 0.0
2014-Dec-12 06:34N 46°30' W 001°47'3 2.5
2014-Dec-12 05:33N 46°29' W 001°51'8 7.6
2014-Dec-12 04:33N 46°36' W 001°55'6 6.1
2014-Dec-12 03:33N 46°42' W 001°56'0 0.0
2014-Dec-11 07:29N 46°42' W 001°56'0 0.0
2014-Dec-11 05:32N 46°42' W 001°56'0 0.1
2014-Dec-11 04:33N 46°42' W 001°56'3 2.9
2014-Dec-11 03:33N 46°39' W 001°58'8 7.7
2014-Dec-11 02:33N 46°31' W 001°58'8 7.6
2014-Dec-11 01:33N 46°24' W 001°58'5 5.5
2014-Dec-11 00:34N 46°18' W 001°58'2 1.7
2014-Dec-10 23:33N 46°17' W 001°56'3 3.2
2014-Dec-10 22:33N 46°14' W 001°53'3 3.2
2014-Dec-10 21:33N 46°12' W 001°50'3 3.2
2014-Dec-10 20:33N 46°09' W 001°47'1 0.2
2014-Dec-10 13:14N 46°10' W 001°49'2 2.9
2014-Dec-10 12:27N 46°12' W 001°51'4 0.2
2014-Dec-09 13:10N 46°09' W 001°47'2 2.8
2014-Dec-09 12:27N 46°10' W 001°49'6 2.9
2014-Dec-09 10:24N 46°15' W 001°54'3 2.9
2014-Dec-09 09:32N 46°17' W 001°56'4 2.9
2014-Dec-09 08:18N 46°20' W 001°59'2 3.0
2014-Dec-09 07:33N 46°21' W 002°01'3 3.3
2014-Dec-09 06:33N 46°24' W 002°04'8 7.9
2014-Dec-09 05:33N 46°32' W 002°02'9 8.5
2014-Dec-09 04:33N 46°40' W 001°58'1 0.7
2014-Dec-09 03:33N 46°39' W 001°58'5 4.8
2014-Dec-09 02:33N 46°35' W 001°58'3 3.0
2014-Dec-09 01:33N 46°32' W 001°55'1 1.0
2014-Dec-09 00:33N 46°31' W 001°55'1 1.4
2014-Dec-08 23:33N 46°33' W 001°55'1 1.4
2014-Dec-08 22:33N 46°32' W 001°54'1 1.0
2014-Dec-08 21:33N 46°31' W 001°55'3 3.4
2014-Dec-08 20:33N 46°34' W 001°57'3 2.6
2014-Dec-08 19:33N 46°32' W 001°54'2 1.6
2014-Dec-08 18:33N 46°31' W 001°54'4 3.6
2014-Dec-08 17:33N 46°32' W 001°59'9 6.8
2014-Dec-08 16:18N 46°32' W 002°12'4 5.8
2014-Dec-08 15:33N 46°33' W 002°18'1 0.2
2014-Dec-08 11:33N 46°32' W 002°18'3 2.6
2014-Dec-08 10:33N 46°29' W 002°18'11 0.6
2014-Dec-07 16:33N 46°18' W 002°16'5 4.3
2014-Dec-07 15:23N 46°22' W 002°11'1 1.5
2014-Dec-07 14:33N 46°20' W 002°11'  
Track history (hours):
 
Tides and Currents Weather Stations Pressure Air Temp Water Temp Dewpoint Dewpoint Depression Visibility Wind Speed Wind Dir Waves Ship Positions

F/V Le Natif 2

Last reported at 2014-Dec-17 13:33 UTC. Time now 2014-Dec-21 12:50 UTC.
Position N 46°39' W 001°56'.

Length 16 m.

Type: Fishing. MMSI: 228131600.

Date/timePositionNaut miles runAvg speedWind from/ knotsBaromVisibWave heightAir tempDewpointWater temp
2014-Dec-17 13:33N 46°39' W 001°56'8 8.3
2014-Dec-17 12:33N 46°31' W 001°52'3 3.3
2014-Dec-17 11:33N 46°30' W 001°48'0 0.0
2014-Dec-17 10:33N 46°30' W 001°48'  
2014-Dec-12 07:34N 46°30' W 001°47'0 0.0
2014-Dec-12 06:34N 46°30' W 001°47'3 2.5
2014-Dec-12 05:33N 46°29' W 001°51'8 7.6
2014-Dec-12 04:33N 46°36' W 001°55'6 6.1
2014-Dec-12 03:33N 46°42' W 001°56'0 0.0
2014-Dec-11 07:29N 46°42' W 001°56'0 0.0
2014-Dec-11 05:32N 46°42' W 001°56'0 0.1
2014-Dec-11 04:33N 46°42' W 001°56'3 2.9
2014-Dec-11 03:33N 46°39' W 001°58'8 7.7
2014-Dec-11 02:33N 46°31' W 001°58'8 7.6
2014-Dec-11 01:33N 46°24' W 001°58'5 5.5
2014-Dec-11 00:34N 46°18' W 001°58'2 1.7
2014-Dec-10 23:33N 46°17' W 001°56'3 3.2
2014-Dec-10 22:33N 46°14' W 001°53'3 3.2
2014-Dec-10 21:33N 46°12' W 001°50'3 3.2
2014-Dec-10 20:33N 46°09' W 001°47'1 0.2
2014-Dec-10 13:14N 46°10' W 001°49'2 2.9
2014-Dec-10 12:27N 46°12' W 001°51'4 0.2
2014-Dec-09 13:10N 46°09' W 001°47'2 2.8
2014-Dec-09 12:27N 46°10' W 001°49'6 2.9
2014-Dec-09 10:24N 46°15' W 001°54'3 2.9
2014-Dec-09 09:32N 46°17' W 001°56'4 2.9
2014-Dec-09 08:18N 46°20' W 001°59'2 3.0
2014-Dec-09 07:33N 46°21' W 002°01'3 3.3
2014-Dec-09 06:33N 46°24' W 002°04'8 7.9
2014-Dec-09 05:33N 46°32' W 002°02'9 8.5
2014-Dec-09 04:33N 46°40' W 001°58'1 0.7
2014-Dec-09 03:33N 46°39' W 001°58'5 4.8
2014-Dec-09 02:33N 46°35' W 001°58'3 3.0
2014-Dec-09 01:33N 46°32' W 001°55'1 1.0
2014-Dec-09 00:33N 46°31' W 001°55'1 1.4
2014-Dec-08 23:33N 46°33' W 001°55'1 1.4
2014-Dec-08 22:33N 46°32' W 001°54'1 1.0
2014-Dec-08 21:33N 46°31' W 001°55'3 3.4
2014-Dec-08 20:33N 46°34' W 001°57'3 2.6
2014-Dec-08 19:33N 46°32' W 001°54'2 1.6
2014-Dec-08 18:33N 46°31' W 001°54'4 3.6
2014-Dec-08 17:33N 46°32' W 001°59'9 6.8
2014-Dec-08 16:18N 46°32' W 002°12'4 5.8
2014-Dec-08 15:33N 46°33' W 002°18'1 0.2
2014-Dec-08 11:33N 46°32' W 002°18'3 2.6
2014-Dec-08 10:33N 46°29' W 002°18'11 0.6
2014-Dec-07 16:33N 46°18' W 002°16'5 4.3
2014-Dec-07 15:23N 46°22' W 002°11'1 1.5
2014-Dec-07 14:33N 46°20' W 002°11'  

Dump ship's entire track history